Historique des mesures à Cassis (13260), France
Quotidien Résumé Avril 29, 2017 Unités:  Métrique    US   Métrique/US
« Précédent (Jour)
Suivant (Jour) »
Quotidien Hebdomadaire Mensuel Annuel Période au choix
  Maximum: Minimum: Moyenne:
Température: TemperatureC °C 9.3 °C 14.1 °C
Point de rosée: DewpointC °C -0.6 °C 4.6 °C
Humidité: Humidity % 44 % 50 %
Vitesse du vent: 0 km/h 0 km/h 4 km/h
Rafales: 0 km/h - -
Vent:- - South
Pression: PressurehPa hPa 1010.4 hPa -
Précipitations: 0.0 mm    
Historical Graphs
 
 
Mesures pour : Avril 29, 2017
Heure Temperature Point de rosée Pression Vent Vitesse du vent Rafales Humidité Pluie (par heure) Conditions
TemperatureC °C DewpointC °C PressurehPa hPa Calm     Humidity % HourlyPrecipMM mm SoftwareType W/m2
00:10 10.9 °C -0.6 °C 1010.7 hPa West 20.9 km/h 34.8 km/h 45 % 0.0 mm open2300-1.11 W/m2
01:10 10.1 °C -0.4 °C 1010.7 hPa NNW 15.6 km/h 16.9 km/h 48 % 0.0 mm open2300-1.11 W/m2
02:10 10.4 °C -0.5 °C 1010.7 hPa NNE 4.7 km/h 18.7 km/h 47 % 0.0 mm open2300-1.11 W/m2
03:10 10.1 °C -0.4 °C 1010.7 hPa NNE 5.6 km/h 5.6 km/h 48 % 0.0 mm open2300-1.11 W/m2
04:10 9.8 °C -0.4 °C 1010.4 hPa NNW 5.1 km/h 20.3 km/h 49 % 0.0 mm open2300-1.11 W/m2
05:11 9.3 °C -0.6 °C 1010.4 hPa North 1.8 km/h 5.6 km/h 50 % 0.0 mm open2300-1.11 W/m2
06:10 9.4 °C -0.3 °C 1010.7 hPa Calm     51 % 0.0 mm open2300-1.11 W/m2
07:11 9.5 °C 0.4 °C 1011.1 hPa NNE 4.7 km/h 5.1 km/h 53 % 0.0 mm open2300-1.11 W/m2
08:10 14.9 °C 3.3 °C 1011.7 hPa NW 2.3 km/h 3.4 km/h 46 % 0.0 mm open2300-1.11 W/m2
09:10 13.0 °C 2.2 °C 1012.4 hPa Calm   6.4 km/h 48 % 0.0 mm open2300-1.11 W/m2
10:10 14.1 °C 3.2 °C 1012.4 hPa Calm   25.4 km/h 48 % 0.0 mm open2300-1.11 W/m2
11:10 17.8 °C 6.3 °C 1013.1 hPa SE 6.4 km/h 9.3 km/h 47 % 0.0 mm open2300-1.11 W/m2
12:10 19.0 °C 8.1 °C 1013.1 hPa West 3.4 km/h 9.3 km/h 49 % 0.0 mm open2300-1.11 W/m2
13:10 20.1 °C 7.4 °C 1012.8 hPa West 1.8 km/h 2.9 km/h 44 % 0.0 mm open2300-1.11 W/m2
14:10 20.6 °C 9.5 °C 1012.4 hPa SSW 6.4 km/h 6.4 km/h 49 % 0.0 mm open2300-1.11 W/m2
15:11 19.9 °C 9.5 °C 1012.4 hPa NW 4.2 km/h 11.6 km/h 51 % 0.0 mm open2300-1.11 W/m2
16:11 19.6 °C 10.3 °C 1011.7 hPa ESE 2.3 km/h 5.6 km/h 55 % 0.0 mm open2300-1.11 W/m2
17:10 19.0 °C 9.7 °C 1012.1 hPa NE 1.8 km/h 18.7 km/h 55 % 0.0 mm open2300-1.11 W/m2
18:10 18.2 °C 9.8 °C 1011.7 hPa WNW 5.1 km/h 5.1 km/h 58 % 0.0 mm open2300-1.11 W/m2
19:10 17.3 °C 8.9 °C 1011.7 hPa West 7.6 km/h 7.6 km/h 58 % 0.0 mm open2300-1.11 W/m2
20:10 16.1 °C 8.6 °C 1011.7 hPa South 1.8 km/h 1.8 km/h 61 % 0.0 mm open2300-1.11 W/m2
21:10 15.2 °C 7.7 °C 1012.1 hPa Calm     61 % 0.0 mm open2300-1.11 W/m2
22:10 14.6 °C 7.6 °C 1012.4 hPa Calm     63 % 0.0 mm open2300-1.11 W/m2
23:10 13.4 °C 6.9 °C 1012.4 hPa Calm     65 % 0.0 mm open2300-1.11 W/m2
Observations météo à CASSIS
WU-History script by Weather Underground - 1 mb